createdAt,value
2022-09-10T08:48:08.722Z,2.13
2022-09-10T08:50:47.156Z,2.17
2022-09-10T08:53:29.144Z,2.40
2022-09-10T08:55:58.405Z,2.13
2022-09-10T08:58:30.799Z,2.40
2022-09-10T09:00:58.946Z,2.50
2022-09-10T09:03:29.281Z,2.08
2022-09-10T09:05:58.096Z,2.00
2022-09-10T09:08:28.420Z,2.33
2022-09-10T09:10:54.747Z,2.20
2022-09-10T09:13:26.453Z,2.35
2022-09-10T09:16:07.917Z,2.30
2022-09-10T09:18:37.343Z,2.67
2022-09-10T09:21:13.010Z,2.10
2022-09-10T09:24:11.662Z,2.45
2022-09-10T09:26:37.619Z,2.20
2022-09-10T09:29:10.761Z,2.17
2022-09-10T09:31:42.927Z,2.30
2022-09-10T09:34:19.069Z,1.88
2022-09-10T09:36:49.925Z,2.13
2022-09-10T09:39:23.886Z,2.08
2022-09-10T09:42:12.267Z,2.10
2022-09-10T09:44:46.545Z,2.70
2022-09-10T09:47:12.991Z,2.28
2022-09-10T09:49:39.528Z,2.03
2022-09-10T09:52:22.524Z,2.15
2022-09-10T09:55:13.817Z,1.90
2022-09-10T09:57:37.065Z,1.85
2022-09-10T10:00:32.508Z,2.13
2022-09-10T10:03:24.937Z,1.85
2022-09-10T10:06:00.854Z,1.67
2022-09-10T10:08:28.880Z,1.95
2022-09-10T10:10:58.477Z,1.70
2022-09-10T10:13:25.019Z,2.00
2022-09-10T10:15:51.467Z,1.70
2022-09-10T10:18:33.542Z,1.50
2022-09-10T10:21:26.175Z,1.38
2022-09-10T10:23:52.546Z,1.30
2022-09-10T10:26:18.873Z,1.33
2022-09-10T10:28:46.434Z,1.10
2022-09-10T10:31:13.225Z,1.33
2022-09-10T10:33:46.238Z,1.50
2022-09-10T10:36:12.546Z,1.38
2022-09-10T10:38:41.441Z,1.85
2022-09-10T10:41:14.425Z,1.67
2022-09-10T10:43:47.460Z,1.38
2022-09-10T10:46:21.209Z,1.65
2022-09-10T10:49:06.546Z,1.30
2022-09-10T10:51:35.909Z,1.60
2022-09-10T10:54:08.960Z,1.48
2022-09-10T10:56:37.890Z,1.70
2022-09-10T10:59:07.214Z,1.30
2022-09-10T11:01:37.225Z,1.10
2022-09-10T11:04:03.580Z,1.30
2022-09-10T11:06:41.279Z,1.20
2022-09-10T11:09:11.633Z,1.27
2022-09-10T11:11:59.174Z,1.10
2022-09-10T11:14:32.686Z,1.27
2022-09-10T11:17:03.701Z,1.00
2022-09-10T11:19:35.693Z,1.13
2022-09-10T11:22:06.937Z,1.10
2022-09-10T11:24:53.514Z,1.00
2022-09-10T11:27:22.527Z,1.10
2022-09-10T11:30:02.477Z,1.00
2022-09-10T11:32:47.842Z,1.40
2022-09-10T11:35:14.348Z,1.00
2022-09-10T11:38:01.001Z,0.90
2022-09-10T11:40:30.998Z,1.52
2022-09-10T11:43:00.301Z,1.07
2022-09-10T11:45:32.869Z,1.13
2022-09-10T11:48:19.767Z,1.13
2022-09-10T11:50:52.564Z,1.10
2022-09-10T11:53:21.336Z,1.30
2022-09-10T11:55:59.875Z,1.10
2022-09-10T11:58:26.195Z,1.45
2022-09-10T12:00:59.663Z,1.30
2022-09-10T12:03:27.174Z,1.30
2022-09-10T12:06:02.474Z,1.25
2022-09-10T12:08:29.529Z,1.00
2022-09-10T12:11:01.692Z,1.30
2022-09-10T12:13:28.053Z,1.48
2022-09-10T12:15:56.442Z,1.33
2022-09-10T12:18:25.962Z,1.25
2022-09-10T12:20:59.629Z,1.33
2022-09-10T12:23:30.555Z,1.20
2022-09-10T12:28:42.223Z,1.00
2022-09-10T12:31:09.848Z,0.80
2022-09-10T12:33:57.695Z,1.20
2022-09-10T12:36:27.034Z,0.90
2022-09-10T12:39:12.158Z,1.13
2022-09-10T12:41:38.641Z,1.08
2022-09-10T12:44:24.777Z,1.10
2022-09-10T12:47:29.901Z,1.20
2022-09-10T12:49:57.533Z,1.00
2022-09-10T12:52:36.009Z,0.95
2022-09-10T12:55:21.636Z,1.00
2022-09-10T12:58:00.617Z,1.30
2022-09-10T13:00:30.613Z,1.02
2022-09-10T13:02:59.972Z,0.87
2022-09-10T13:05:26.283Z,1.00
2022-09-10T13:08:07.997Z,1.10
2022-09-10T13:10:34.423Z,1.10
2022-09-10T13:13:04.951Z,1.02
2022-09-10T13:15:35.365Z,0.90
2022-09-10T13:18:01.786Z,1.02
2022-09-10T13:20:30.593Z,1.10
2022-09-10T13:23:04.117Z,1.00
2022-09-10T13:25:32.370Z,0.90
2022-09-10T13:27:58.750Z,1.08
2022-09-10T13:30:25.600Z,0.80
2022-09-10T13:32:55.208Z,0.85
2022-09-10T13:35:24.638Z,0.90
2022-09-10T13:38:09.295Z,0.80
2022-09-10T13:40:39.201Z,0.80
2022-09-10T13:43:27.700Z,0.82
2022-09-10T13:45:57.077Z,1.10
2022-09-10T13:48:28.922Z,1.13
2022-09-10T13:51:13.680Z,0.93
2022-09-10T13:53:41.622Z,1.02
2022-09-10T13:56:14.321Z,0.90
2022-09-10T13:58:47.169Z,0.90
2022-09-10T14:01:13.566Z,0.85
2022-09-10T14:03:44.854Z,1.00
2022-09-10T14:06:25.092Z,0.98
2022-09-10T14:08:53.473Z,0.98
2022-09-10T14:11:22.113Z,1.08
2022-09-10T14:13:55.988Z,1.00
2022-09-10T14:16:31.842Z,0.80
2022-09-10T14:18:59.630Z,1.08
2022-09-10T14:21:29.362Z,0.98
2022-09-10T14:23:56.891Z,0.77
2022-09-10T14:26:25.836Z,0.88
2022-09-10T14:28:53.597Z,0.90
2022-09-10T14:31:23.083Z,1.30
2022-09-10T14:33:49.507Z,1.30
2022-09-10T14:36:21.479Z,1.00
2022-09-10T14:39:02.233Z,1.17
2022-09-10T14:41:30.078Z,0.90
2022-09-10T14:44:14.076Z,0.80
2022-09-10T14:46:49.124Z,0.90
2022-09-10T14:49:17.275Z,1.10
2022-09-10T14:51:43.697Z,0.98
2022-09-10T14:54:13.883Z,0.90
2022-09-10T14:56:49.345Z,1.02
2022-09-10T14:59:18.177Z,1.10
2022-09-10T15:01:45.500Z,0.95
2022-09-10T15:04:13.226Z,1.10
2022-09-10T15:06:40.624Z,0.90
2022-09-10T15:09:08.049Z,1.40
2022-09-10T15:11:34.807Z,1.10
2022-09-10T15:14:01.194Z,1.20
2022-09-10T15:16:27.753Z,1.05
2022-09-10T15:18:58.274Z,1.20
2022-09-10T15:21:25.390Z,1.20
2022-09-10T15:23:51.956Z,1.30
2022-09-10T15:26:18.361Z,1.15
2022-09-10T15:28:44.750Z,1.30
2022-09-10T15:31:11.216Z,1.48
2022-09-10T15:33:37.708Z,1.60
2022-09-10T15:36:04.168Z,1.17
2022-09-10T15:38:31.434Z,1.25
2022-09-10T15:41:08.914Z,1.15
2022-09-10T15:43:39.849Z,1.20
2022-09-10T15:48:35.244Z,1.40
2022-09-10T15:51:02.951Z,1.85
2022-09-10T15:53:32.113Z,1.17
2022-09-10T15:56:02.361Z,1.20
2022-09-10T15:58:28.997Z,1.50
2022-09-10T16:01:00.566Z,1.30
2022-09-10T16:03:26.891Z,1.20
2022-09-10T16:05:53.222Z,1.52
2022-09-10T16:08:19.613Z,1.38
2022-09-10T16:10:45.951Z,1.30
2022-09-10T16:13:12.304Z,1.33
2022-09-10T16:15:38.689Z,1.42
2022-09-10T16:18:05.161Z,1.00
2022-09-10T16:20:33.255Z,1.35
2022-09-10T16:22:59.685Z,1.40
2022-09-10T16:25:26.038Z,1.30
2022-09-10T16:27:52.369Z,1.25
2022-09-10T16:30:21.530Z,1.30
2022-09-10T16:32:48.482Z,1.30
2022-09-10T16:35:14.859Z,1.27
2022-09-10T16:37:41.449Z,1.27
2022-09-10T16:40:09.277Z,1.30
2022-09-10T16:42:35.736Z,1.27
2022-09-10T16:45:02.113Z,1.25
2022-09-10T16:47:28.698Z,1.40
2022-09-10T16:49:55.259Z,1.27
2022-09-10T16:52:21.732Z,1.13
2022-09-10T16:54:48.056Z,1.42
2022-09-10T16:57:14.384Z,1.10
2022-09-10T16:59:40.750Z,1.42
2022-09-10T17:02:07.671Z,1.17
2022-09-10T17:04:34.670Z,1.50
2022-09-10T17:07:01.040Z,1.52
2022-09-10T17:09:27.460Z,1.15
2022-09-10T17:11:53.868Z,1.42
2022-09-10T17:14:20.311Z,1.40
2022-09-10T17:16:48.053Z,1.20
2022-09-10T17:19:18.358Z,1.17
2022-09-10T17:21:47.249Z,1.10
2022-09-10T17:24:13.670Z,1.40
2022-09-10T17:26:41.281Z,1.48
2022-09-10T17:29:11.317Z,1.63
2022-09-10T17:31:37.665Z,1.37
2022-09-10T17:34:07.020Z,1.42
2022-09-10T17:36:33.571Z,1.35
2022-09-10T17:39:00.283Z,1.60
2022-09-10T17:41:27.658Z,1.20
2022-09-10T17:43:54.433Z,1.60
2022-09-10T17:46:22.862Z,1.50
2022-09-10T17:48:50.193Z,1.23
2022-09-10T17:51:18.182Z,1.60
2022-09-10T17:53:44.856Z,1.52
2022-09-10T17:56:12.545Z,1.35
2022-09-10T17:58:39.314Z,1.33
2022-09-10T18:01:07.939Z,1.50
2022-09-10T18:03:34.770Z,1.42
2022-09-10T18:06:04.737Z,1.40
2022-09-10T18:08:32.534Z,2.00
2022-09-10T18:11:06.146Z,1.67
2022-09-10T18:13:34.244Z,1.75
2022-09-10T18:16:06.471Z,1.50
2022-09-10T18:18:35.086Z,1.27
2022-09-10T18:21:18.085Z,1.55
2022-09-10T18:23:46.197Z,1.35
2022-09-10T18:26:16.604Z,1.23
2022-09-10T18:28:44.072Z,1.33
2022-09-10T18:31:11.080Z,1.90
2022-09-10T18:33:38.946Z,1.70
2022-09-10T18:36:16.201Z,1.60
2022-09-10T18:38:42.875Z,1.48
2022-09-10T18:41:16.687Z,1.60
2022-09-10T18:43:43.065Z,1.60
2022-09-10T18:46:09.946Z,1.80
2022-09-10T18:48:36.329Z,1.73
2022-09-10T18:51:06.463Z,1.60
2022-09-10T18:53:33.263Z,1.80
2022-09-10T18:56:05.628Z,1.80
2022-09-10T18:58:31.962Z,1.45
2022-09-10T19:01:04.394Z,1.70
2022-09-10T19:03:33.707Z,1.60
2022-09-10T19:06:02.725Z,1.75
2022-09-10T19:08:29.183Z,1.73
2022-09-10T19:10:59.084Z,1.70
2022-09-10T19:13:25.493Z,1.45
2022-09-10T19:15:59.174Z,1.60
2022-09-10T19:18:29.834Z,1.88
2022-09-10T19:20:56.461Z,1.92
2022-09-10T19:23:23.730Z,1.83
2022-09-10T19:25:53.669Z,1.40
2022-09-10T19:28:20.509Z,1.60
2022-09-10T19:30:47.467Z,1.60
2022-09-10T19:33:15.873Z,1.60
2022-09-10T19:35:43.444Z,1.60
2022-09-10T19:38:27.515Z,1.45
2022-09-10T19:41:14.251Z,1.60
2022-09-10T19:43:40.896Z,1.80
2022-09-10T19:46:10.106Z,2.08
2022-09-10T19:48:37.197Z,1.92
2022-09-10T19:51:05.121Z,1.58
2022-09-10T19:53:35.316Z,1.73
2022-09-10T19:56:05.388Z,2.10
2022-09-10T19:58:31.880Z,1.63
2022-09-10T20:00:58.268Z,1.63
2022-09-10T20:03:24.643Z,1.80
2022-09-10T20:05:50.999Z,2.22
2022-09-10T20:08:17.340Z,2.05
2022-09-10T20:10:51.900Z,1.90
2022-09-10T20:13:18.253Z,1.75
2022-09-10T20:15:45.607Z,1.80
2022-09-10T20:18:12.106Z,1.73
2022-09-10T20:20:38.433Z,1.40
2022-09-10T20:23:04.750Z,1.80
2022-09-10T20:25:33.964Z,1.70
2022-09-10T20:28:01.259Z,1.83
2022-09-10T20:30:27.640Z,2.30
2022-09-10T20:32:54.108Z,1.77
2022-09-10T20:35:20.466Z,1.75
2022-09-10T20:37:50.009Z,1.80
2022-09-10T20:40:18.062Z,1.45
2022-09-10T20:42:47.470Z,1.75
2022-09-10T20:45:13.835Z,1.73
2022-09-10T20:47:43.031Z,1.80
2022-09-10T20:50:13.204Z,2.00
2022-09-10T20:52:40.090Z,1.60
2022-09-10T20:55:06.997Z,1.73
2022-09-10T20:57:33.366Z,1.60
2022-09-10T20:59:59.706Z,1.40
2022-09-10T21:02:26.319Z,1.67
2022-09-10T21:04:52.749Z,1.70
2022-09-10T21:07:20.332Z,1.80
2022-09-10T21:09:46.689Z,1.77
2022-09-10T21:12:13.152Z,1.88
2022-09-10T21:14:39.495Z,1.50
2022-09-10T21:17:05.797Z,1.58
2022-09-10T21:19:32.272Z,1.90
2022-09-10T21:21:58.616Z,1.50
2022-09-10T21:24:26.744Z,1.50
2022-09-10T21:26:53.616Z,1.60
2022-09-10T21:29:20.584Z,1.98
2022-09-10T21:31:47.469Z,1.48
2022-09-10T21:34:14.003Z,1.45
2022-09-10T21:36:41.221Z,1.50
2022-09-10T21:39:11.449Z,1.77
2022-09-10T21:41:39.837Z,1.45
2022-09-10T21:44:14.113Z,1.38
2022-09-10T21:46:41.309Z,1.75
2022-09-10T21:49:07.716Z,1.50
2022-09-10T21:51:37.429Z,2.05
2022-09-10T21:54:04.770Z,1.63
2022-09-10T21:56:31.232Z,1.33
2022-09-10T21:58:59.086Z,1.50
2022-09-10T22:01:27.730Z,1.52
2022-09-10T22:03:58.073Z,1.50
2022-09-10T22:06:25.421Z,1.75
2022-09-10T22:08:53.206Z,1.55
2022-09-10T22:11:24.254Z,1.55
2022-09-10T22:16:16.929Z,1.85
2022-09-10T22:18:43.360Z,1.30
2022-09-10T22:21:09.721Z,1.45
2022-09-10T22:23:36.959Z,1.38
2022-09-10T22:26:04.353Z,1.10
2022-09-10T22:28:34.968Z,1.45
2022-09-10T22:31:28.014Z,1.27
2022-09-10T22:33:56.033Z,1.48
2022-09-10T22:36:26.665Z,1.55
2022-09-10T22:38:54.366Z,1.40
2022-09-10T22:41:22.876Z,1.20
2022-09-10T22:43:49.598Z,1.50
2022-09-10T22:46:16.008Z,1.58
2022-09-10T22:48:43.379Z,1.20
2022-09-10T22:51:11.414Z,1.20
2022-09-10T22:53:38.502Z,1.48
2022-09-10T22:56:05.001Z,1.58
2022-09-10T22:58:31.471Z,1.40
2022-09-10T23:01:02.424Z,1.45
2022-09-10T23:06:21.632Z,1.50
2022-09-10T23:08:50.316Z,1.25
2022-09-10T23:11:16.629Z,1.50
2022-09-10T23:13:43.893Z,1.50
2022-09-10T23:16:15.447Z,1.52
2022-09-10T23:18:42.711Z,1.60
2022-09-10T23:21:09.741Z,1.80
2022-09-10T23:23:36.190Z,1.80
2022-09-10T23:26:08.856Z,1.85
2022-09-10T23:28:38.449Z,1.60
2022-09-10T23:31:06.447Z,1.52
2022-09-10T23:33:33.057Z,1.63
2022-09-10T23:35:59.435Z,1.58
2022-09-10T23:38:26.027Z,1.27
2022-09-10T23:40:52.766Z,1.35
2022-09-10T23:43:20.513Z,1.20
2022-09-10T23:45:46.918Z,1.50
2022-09-10T23:48:13.361Z,1.38
2022-09-10T23:50:39.694Z,1.38
2022-09-10T23:53:06.062Z,1.75
2022-09-10T23:55:36.188Z,1.58
2022-09-10T23:58:03.271Z,1.40
